Cincinnati (CVG/KCVG)

Map

Information

Location
Cincinnati, KY
Local Time
19:23 / 7:23 pm
GMT Time
00:23 / 12:23 am
Gates
Unassigned
No FAA reported delays
METAR KCVG 222352Z 15005KT 10SM BKN037 16/14 A2980 RMK AO2 SLP087 T01610139 10189 20156 55001
TAF KCVG 222340Z 2300/2406 19004KT P6SM OVC025 TEMPO 2300/2302 BKN035 FM230600 20004KT 4SM BR OVC015 FM230900 20004KT 4SM BR VCSH OVC015 FM231500 21007KT P6SM OVC007 FM231700 21006KT P6SM BKN020 FM232300 15005KT P6SM BKN040 FM240300 16006KT P6SM SCT040
  • No charts available